sensor_id;sensor_type;location;lat;lon;timestamp;temperature;humidity
11597;DHT22;5854;48.072;16.286;2023-04-25T00:00:27;11.30;63.00
11597;DHT22;5854;48.072;16.286;2023-04-25T00:02:54;11.40;62.20
11597;DHT22;5854;48.072;16.286;2023-04-25T00:05:24;11.30;57.80
11597;DHT22;5854;48.072;16.286;2023-04-25T00:07:51;11.30;61.90
11597;DHT22;5854;48.072;16.286;2023-04-25T00:10:19;11.40;63.50
11597;DHT22;5854;48.072;16.286;2023-04-25T00:12:47;11.20;56.20
11597;DHT22;5854;48.072;16.286;2023-04-25T00:15:14;11.20;59.00
11597;DHT22;5854;48.072;16.286;2023-04-25T00:17:41;11.30;61.90
11597;DHT22;5854;48.072;16.286;2023-04-25T00:20:10;11.30;59.30
11597;DHT22;5854;48.072;16.286;2023-04-25T00:22:39;11.30;63.00
11597;DHT22;5854;48.072;16.286;2023-04-25T00:25:07;11.20;61.10
11597;DHT22;5854;48.072;16.286;2023-04-25T00:27:34;11.20;58.90
11597;DHT22;5854;48.072;16.286;2023-04-25T00:30:01;11.20;56.40
11597;DHT22;5854;48.072;16.286;2023-04-25T00:32:28;11.20;54.70
11597;DHT22;5854;48.072;16.286;2023-04-25T00:34:55;11.20;56.80
11597;DHT22;5854;48.072;16.286;2023-04-25T00:37:23;11.20;61.30
11597;DHT22;5854;48.072;16.286;2023-04-25T00:39:52;11.20;61.10
11597;DHT22;5854;48.072;16.286;2023-04-25T00:42:21;11.20;60.90
11597;DHT22;5854;48.072;16.286;2023-04-25T00:44:49;11.20;63.50
11597;DHT22;5854;48.072;16.286;2023-04-25T00:47:17;11.10;61.30
11597;DHT22;5854;48.072;16.286;2023-04-25T00:49:44;11.10;61.80
11597;DHT22;5854;48.072;16.286;2023-04-25T00:52:11;11.20;59.60
11597;DHT22;5854;48.072;16.286;2023-04-25T00:54:39;11.10;58.60
11597;DHT22;5854;48.072;16.286;2023-04-25T00:57:07;11.00;58.90
11597;DHT22;5854;48.072;16.286;2023-04-25T00:59:36;11.00;60.20
11597;DHT22;5854;48.072;16.286;2023-04-25T01:02:04;11.00;57.00
11597;DHT22;5854;48.072;16.286;2023-04-25T01:04:32;11.00;60.00
11597;DHT22;5854;48.072;16.286;2023-04-25T01:06:59;11.00;61.60
11597;DHT22;5854;48.072;16.286;2023-04-25T01:09:30;11.00;61.20
11597;DHT22;5854;48.072;16.286;2023-04-25T01:11:57;11.10;59.90
11597;DHT22;5854;48.072;16.286;2023-04-25T01:14:27;11.00;59.30
11597;DHT22;5854;48.072;16.286;2023-04-25T01:16:54;11.00;59.10
11597;DHT22;5854;48.072;16.286;2023-04-25T01:19:21;10.90;58.60
11597;DHT22;5854;48.072;16.286;2023-04-25T01:21:50;11.00;62.50
11597;DHT22;5854;48.072;16.286;2023-04-25T01:24:18;11.10;61.00
11597;DHT22;5854;48.072;16.286;2023-04-25T01:26:45;11.00;61.60
11597;DHT22;5854;48.072;16.286;2023-04-25T01:29:15;10.90;61.20
11597;DHT22;5854;48.072;16.286;2023-04-25T01:31:43;10.90;57.70
11597;DHT22;5854;48.072;16.286;2023-04-25T01:34:11;11.00;61.00
11597;DHT22;5854;48.072;16.286;2023-04-25T01:36:38;10.90;56.90
11597;DHT22;5854;48.072;16.286;2023-04-25T01:39:07;10.90;61.50
11597;DHT22;5854;48.072;16.286;2023-04-25T01:41:34;10.90;59.40
11597;DHT22;5854;48.072;16.286;2023-04-25T01:44:02;10.80;59.30
11597;DHT22;5854;48.072;16.286;2023-04-25T01:46:30;10.90;59.80
11597;DHT22;5854;48.072;16.286;2023-04-25T01:48:57;10.80;60.10
11597;DHT22;5854;48.072;16.286;2023-04-25T01:51:24;10.90;63.40
11597;DHT22;5854;48.072;16.286;2023-04-25T01:53:52;10.80;61.10
11597;DHT22;5854;48.072;16.286;2023-04-25T01:56:20;10.80;62.90
11597;DHT22;5854;48.072;16.286;2023-04-25T01:58:48;10.80;59.30
11597;DHT22;5854;48.072;16.286;2023-04-25T02:01:15;10.70;60.40
11597;DHT22;5854;48.072;16.286;2023-04-25T02:03:42;10.70;61.90
11597;DHT22;5854;48.072;16.286;2023-04-25T02:06:09;10.70;59.20
11597;DHT22;5854;48.072;16.286;2023-04-25T02:08:37;10.70;61.20
11597;DHT22;5854;48.072;16.286;2023-04-25T02:11:04;10.60;57.80
11597;DHT22;5854;48.072;16.286;2023-04-25T02:13:32;10.60;59.50
11597;DHT22;5854;48.072;16.286;2023-04-25T02:15:59;10.70;62.70
11597;DHT22;5854;48.072;16.286;2023-04-25T02:18:26;10.70;56.70
11597;DHT22;5854;48.072;16.286;2023-04-25T02:20:53;10.70;62.50
11597;DHT22;5854;48.072;16.286;2023-04-25T02:23:20;10.70;59.50
11597;DHT22;5854;48.072;16.286;2023-04-25T02:25:48;10.70;63.50
11597;DHT22;5854;48.072;16.286;2023-04-25T02:28:15;10.70;63.00
11597;DHT22;5854;48.072;16.286;2023-04-25T02:30:44;10.60;60.60
11597;DHT22;5854;48.072;16.286;2023-04-25T02:33:11;10.70;58.50
11597;DHT22;5854;48.072;16.286;2023-04-25T02:35:38;10.50;60.10
11597;DHT22;5854;48.072;16.286;2023-04-25T02:38:05;10.60;62.00
11597;DHT22;5854;48.072;16.286;2023-04-25T02:40:32;10.50;57.90
11597;DHT22;5854;48.072;16.286;2023-04-25T02:42:59;10.60;60.50
11597;DHT22;5854;48.072;16.286;2023-04-25T02:45:26;10.50;62.70
11597;DHT22;5854;48.072;16.286;2023-04-25T02:47:55;10.50;58.80
11597;DHT22;5854;48.072;16.286;2023-04-25T02:50:22;10.40;59.80
11597;DHT22;5854;48.072;16.286;2023-04-25T02:52:49;10.40;62.60
11597;DHT22;5854;48.072;16.286;2023-04-25T02:55:16;10.40;59.80
11597;DHT22;5854;48.072;16.286;2023-04-25T02:57:44;10.40;63.40
11597;DHT22;5854;48.072;16.286;2023-04-25T03:00:12;10.50;60.60
11597;DHT22;5854;48.072;16.286;2023-04-25T03:02:40;10.40;58.50
11597;DHT22;5854;48.072;16.286;2023-04-25T03:05:09;10.40;61.60
11597;DHT22;5854;48.072;16.286;2023-04-25T03:07:36;10.30;60.70
11597;DHT22;5854;48.072;16.286;2023-04-25T03:10:05;10.40;61.90
11597;DHT22;5854;48.072;16.286;2023-04-25T03:12:33;10.30;59.40
11597;DHT22;5854;48.072;16.286;2023-04-25T03:15:00;10.40;61.80
11597;DHT22;5854;48.072;16.286;2023-04-25T03:17:27;10.20;61.90
11597;DHT22;5854;48.072;16.286;2023-04-25T03:19:55;10.20;59.70
11597;DHT22;5854;48.072;16.286;2023-04-25T03:22:23;10.20;62.40
11597;DHT22;5854;48.072;16.286;2023-04-25T03:24:51;10.20;63.30
11597;DHT22;5854;48.072;16.286;2023-04-25T03:27:18;10.30;62.30
11597;DHT22;5854;48.072;16.286;2023-04-25T03:29:45;10.30;59.20
11597;DHT22;5854;48.072;16.286;2023-04-25T03:32:12;10.20;59.00
11597;DHT22;5854;48.072;16.286;2023-04-25T03:34:39;10.20;63.70
11597;DHT22;5854;48.072;16.286;2023-04-25T03:37:06;10.20;63.10
11597;DHT22;5854;48.072;16.286;2023-04-25T03:39:34;10.20;61.00
11597;DHT22;5854;48.072;16.286;2023-04-25T03:42:01;10.20;62.40
11597;DHT22;5854;48.072;16.286;2023-04-25T03:44:29;10.20;63.00
11597;DHT22;5854;48.072;16.286;2023-04-25T03:46:56;10.20;62.30
11597;DHT22;5854;48.072;16.286;2023-04-25T03:49:24;10.10;60.60
11597;DHT22;5854;48.072;16.286;2023-04-25T03:51:51;10.10;63.20
11597;DHT22;5854;48.072;16.286;2023-04-25T03:54:18;10.10;63.40
11597;DHT22;5854;48.072;16.286;2023-04-25T03:56:47;10.10;64.60
11597;DHT22;5854;48.072;16.286;2023-04-25T03:59:14;10.00;62.40
11597;DHT22;5854;48.072;16.286;2023-04-25T04:01:41;10.00;62.20
11597;DHT22;5854;48.072;16.286;2023-04-25T04:04:08;10.00;64.40
11597;DHT22;5854;48.072;16.286;2023-04-25T04:06:35;9.90;61.40
11597;DHT22;5854;48.072;16.286;2023-04-25T04:09:03;10.10;62.60
11597;DHT22;5854;48.072;16.286;2023-04-25T04:11:32;9.90;59.50
11597;DHT22;5854;48.072;16.286;2023-04-25T04:14:00;10.00;60.30
11597;DHT22;5854;48.072;16.286;2023-04-25T04:16:27;9.90;60.10
11597;DHT22;5854;48.072;16.286;2023-04-25T04:18:54;9.90;63.30
11597;DHT22;5854;48.072;16.286;2023-04-25T04:21:22;10.00;62.50
11597;DHT22;5854;48.072;16.286;2023-04-25T04:23:49;10.00;63.70
11597;DHT22;5854;48.072;16.286;2023-04-25T04:26:17;10.00;64.50
11597;DHT22;5854;48.072;16.286;2023-04-25T04:28:49;10.00;63.30
11597;DHT22;5854;48.072;16.286;2023-04-25T04:31:18;9.90;59.10
11597;DHT22;5854;48.072;16.286;2023-04-25T04:33:45;9.80;62.40
11597;DHT22;5854;48.072;16.286;2023-04-25T04:36:13;9.90;61.10
11597;DHT22;5854;48.072;16.286;2023-04-25T04:38:41;9.90;61.90
11597;DHT22;5854;48.072;16.286;2023-04-25T04:41:14;9.90;63.20
11597;DHT22;5854;48.072;16.286;2023-04-25T04:43:43;9.90;64.80
11597;DHT22;5854;48.072;16.286;2023-04-25T04:46:12;9.90;62.00
11597;DHT22;5854;48.072;16.286;2023-04-25T04:48:49;10.00;64.10
11597;DHT22;5854;48.072;16.286;2023-04-25T04:51:22;9.90;63.30
11597;DHT22;5854;48.072;16.286;2023-04-25T04:53:50;9.90;59.80
11597;DHT22;5854;48.072;16.286;2023-04-25T04:56:18;9.90;57.60
11597;DHT22;5854;48.072;16.286;2023-04-25T04:58:49;9.80;61.80
11597;DHT22;5854;48.072;16.286;2023-04-25T05:01:16;9.90;60.90
11597;DHT22;5854;48.072;16.286;2023-04-25T05:03:45;9.90;62.10
11597;DHT22;5854;48.072;16.286;2023-04-25T05:06:14;9.90;61.50
11597;DHT22;5854;48.072;16.286;2023-04-25T05:08:41;9.80;59.50
11597;DHT22;5854;48.072;16.286;2023-04-25T05:11:08;9.80;60.90
11597;DHT22;5854;48.072;16.286;2023-04-25T05:13:36;9.80;61.40
11597;DHT22;5854;48.072;16.286;2023-04-25T05:16:04;9.90;61.80
11597;DHT22;5854;48.072;16.286;2023-04-25T05:18:31;9.80;61.00
11597;DHT22;5854;48.072;16.286;2023-04-25T05:20:59;9.90;62.50
11597;DHT22;5854;48.072;16.286;2023-04-25T05:23:26;10.00;63.20
11597;DHT22;5854;48.072;16.286;2023-04-25T05:25:55;10.00;61.90
11597;DHT22;5854;48.072;16.286;2023-04-25T05:28:23;10.10;60.40
11597;DHT22;5854;48.072;16.286;2023-04-25T05:30:54;10.20;60.80
11597;DHT22;5854;48.072;16.286;2023-04-25T05:33:21;10.50;60.50
11597;DHT22;5854;48.072;16.286;2023-04-25T05:35:52;11.00;58.70
11597;DHT22;5854;48.072;16.286;2023-04-25T05:38:21;11.40;54.50
11597;DHT22;5854;48.072;16.286;2023-04-25T05:40:48;11.20;56.20
11597;DHT22;5854;48.072;16.286;2023-04-25T05:43:15;11.30;56.40
11597;DHT22;5854;48.072;16.286;2023-04-25T05:45:42;11.40;56.40
11597;DHT22;5854;48.072;16.286;2023-04-25T05:48:09;11.40;55.60
11597;DHT22;5854;48.072;16.286;2023-04-25T05:50:36;11.60;54.50
11597;DHT22;5854;48.072;16.286;2023-04-25T05:53:09;12.40;52.00
11597;DHT22;5854;48.072;16.286;2023-04-25T05:55:42;12.70;49.70
11597;DHT22;5854;48.072;16.286;2023-04-25T05:58:09;12.20;50.90
11597;DHT22;5854;48.072;16.286;2023-04-25T06:00:36;11.80;52.80
11597;DHT22;5854;48.072;16.286;2023-04-25T06:03:03;11.70;52.40
11597;DHT22;5854;48.072;16.286;2023-04-25T06:05:33;12.00;53.70
11597;DHT22;5854;48.072;16.286;2023-04-25T06:08:00;12.30;50.20
11597;DHT22;5854;48.072;16.286;2023-04-25T06:10:27;12.20;52.60
11597;DHT22;5854;48.072;16.286;2023-04-25T06:12:56;12.20;49.80
11597;DHT22;5854;48.072;16.286;2023-04-25T06:15:23;12.20;52.70
11597;DHT22;5854;48.072;16.286;2023-04-25T06:17:50;12.10;52.00
11597;DHT22;5854;48.072;16.286;2023-04-25T06:20:17;12.00;51.20
11597;DHT22;5854;48.072;16.286;2023-04-25T06:22:48;12.10;50.90
11597;DHT22;5854;48.072;16.286;2023-04-25T06:25:17;12.20;52.50
11597;DHT22;5854;48.072;16.286;2023-04-25T06:27:44;12.40;50.40
11597;DHT22;5854;48.072;16.286;2023-04-25T06:30:13;12.50;50.60
11597;DHT22;5854;48.072;16.286;2023-04-25T06:32:41;12.50;49.90
11597;DHT22;5854;48.072;16.286;2023-04-25T06:35:09;12.80;49.30
11597;DHT22;5854;48.072;16.286;2023-04-25T06:37:36;13.40;49.90
11597;DHT22;5854;48.072;16.286;2023-04-25T06:40:05;14.00;47.00
11597;DHT22;5854;48.072;16.286;2023-04-25T06:42:33;14.80;45.50
11597;DHT22;5854;48.072;16.286;2023-04-25T06:45:00;15.50;43.10
11597;DHT22;5854;48.072;16.286;2023-04-25T06:47:29;15.60;42.40
11597;DHT22;5854;48.072;16.286;2023-04-25T06:49:56;15.60;42.10
11597;DHT22;5854;48.072;16.286;2023-04-25T06:52:23;15.70;39.70
11597;DHT22;5854;48.072;16.286;2023-04-25T06:54:51;15.80;40.30
11597;DHT22;5854;48.072;16.286;2023-04-25T06:57:18;16.00;40.10
11597;DHT22;5854;48.072;16.286;2023-04-25T06:59:45;16.70;39.30
11597;DHT22;5854;48.072;16.286;2023-04-25T07:02:12;17.10;38.40
11597;DHT22;5854;48.072;16.286;2023-04-25T07:04:41;17.30;37.60
11597;DHT22;5854;48.072;16.286;2023-04-25T07:07:09;17.60;37.40
11597;DHT22;5854;48.072;16.286;2023-04-25T07:09:36;17.80;37.50
11597;DHT22;5854;48.072;16.286;2023-04-25T07:12:04;17.60;36.90
11597;DHT22;5854;48.072;16.286;2023-04-25T07:14:31;17.80;36.10
11597;DHT22;5854;48.072;16.286;2023-04-25T07:16:59;17.80;35.50
11597;DHT22;5854;48.072;16.286;2023-04-25T07:19:26;18.20;35.40
11597;DHT22;5854;48.072;16.286;2023-04-25T07:21:57;18.50;34.80
11597;DHT22;5854;48.072;16.286;2023-04-25T07:24:24;18.60;35.10
11597;DHT22;5854;48.072;16.286;2023-04-25T07:26:51;18.50;34.10
11597;DHT22;5854;48.072;16.286;2023-04-25T07:29:19;18.10;34.80
11597;DHT22;5854;48.072;16.286;2023-04-25T07:31:47;18.60;34.70
11597;DHT22;5854;48.072;16.286;2023-04-25T07:34:14;18.40;34.20
11597;DHT22;5854;48.072;16.286;2023-04-25T07:36:42;18.70;35.20
11597;DHT22;5854;48.072;16.286;2023-04-25T07:39:11;18.80;34.80
11597;DHT22;5854;48.072;16.286;2023-04-25T07:41:39;18.40;33.80
11597;DHT22;5854;48.072;16.286;2023-04-25T07:44:06;18.90;33.10
11597;DHT22;5854;48.072;16.286;2023-04-25T07:46:34;18.80;32.90
11597;DHT22;5854;48.072;16.286;2023-04-25T07:49:01;19.20;33.50
11597;DHT22;5854;48.072;16.286;2023-04-25T07:51:28;19.10;34.30
11597;DHT22;5854;48.072;16.286;2023-04-25T07:53:57;19.10;34.50
11597;DHT22;5854;48.072;16.286;2023-04-25T07:56:26;18.30;34.20
11597;DHT22;5854;48.072;16.286;2023-04-25T07:58:54;18.30;34.60
11597;DHT22;5854;48.072;16.286;2023-04-25T08:01:22;18.80;34.50
11597;DHT22;5854;48.072;16.286;2023-04-25T08:03:49;17.20;35.20
11597;DHT22;5854;48.072;16.286;2023-04-25T08:06:16;15.80;38.60
11597;DHT22;5854;48.072;16.286;2023-04-25T08:08:45;14.60;40.20
11597;DHT22;5854;48.072;16.286;2023-04-25T08:11:12;14.40;43.20
11597;DHT22;5854;48.072;16.286;2023-04-25T08:13:41;14.10;42.80
11597;DHT22;5854;48.072;16.286;2023-04-25T08:16:08;14.00;44.80
11597;DHT22;5854;48.072;16.286;2023-04-25T08:18:37;14.00;45.20
11597;DHT22;5854;48.072;16.286;2023-04-25T08:21:05;14.10;45.20
11597;DHT22;5854;48.072;16.286;2023-04-25T08:23:34;14.20;44.40
11597;DHT22;5854;48.072;16.286;2023-04-25T08:26:02;14.20;46.40
11597;DHT22;5854;48.072;16.286;2023-04-25T08:28:30;14.20;44.40
11597;DHT22;5854;48.072;16.286;2023-04-25T08:30:59;13.90;43.30
11597;DHT22;5854;48.072;16.286;2023-04-25T08:33:28;14.10;42.80
11597;DHT22;5854;48.072;16.286;2023-04-25T08:35:55;14.20;44.40
11597;DHT22;5854;48.072;16.286;2023-04-25T08:38:23;14.00;45.90
11597;DHT22;5854;48.072;16.286;2023-04-25T08:40:51;14.10;46.70
11597;DHT22;5854;48.072;16.286;2023-04-25T08:43:20;13.90;46.90
11597;DHT22;5854;48.072;16.286;2023-04-25T08:45:48;13.70;46.80
11597;DHT22;5854;48.072;16.286;2023-04-25T08:48:17;13.60;48.20
11597;DHT22;5854;48.072;16.286;2023-04-25T08:50:48;13.50;45.50
11597;DHT22;5854;48.072;16.286;2023-04-25T08:53:22;13.50;44.40
11597;DHT22;5854;48.072;16.286;2023-04-25T08:55:53;13.40;46.20
11597;DHT22;5854;48.072;16.286;2023-04-25T08:58:22;13.40;48.30
11597;DHT22;5854;48.072;16.286;2023-04-25T09:00:51;13.30;46.40
11597;DHT22;5854;48.072;16.286;2023-04-25T09:03:20;13.30;46.50
11597;DHT22;5854;48.072;16.286;2023-04-25T09:05:47;13.40;47.30
11597;DHT22;5854;48.072;16.286;2023-04-25T09:08:15;13.30;47.10
11597;DHT22;5854;48.072;16.286;2023-04-25T09:10:42;13.50;49.10
11597;DHT22;5854;48.072;16.286;2023-04-25T09:13:11;13.50;47.40
11597;DHT22;5854;48.072;16.286;2023-04-25T09:15:48;13.70;44.20
11597;DHT22;5854;48.072;16.286;2023-04-25T09:18:24;13.90;45.40
11597;DHT22;5854;48.072;16.286;2023-04-25T09:20:55;13.70;44.90
11597;DHT22;5854;48.072;16.286;2023-04-25T09:23:24;13.60;43.70
11597;DHT22;5854;48.072;16.286;2023-04-25T09:25:52;13.40;46.90
11597;DHT22;5854;48.072;16.286;2023-04-25T09:28:23;13.20;45.60
11597;DHT22;5854;48.072;16.286;2023-04-25T09:30:55;13.00;43.30
11597;DHT22;5854;48.072;16.286;2023-04-25T09:33:29;12.90;47.00
11597;DHT22;5854;48.072;16.286;2023-04-25T09:36:03;12.90;47.50
11597;DHT22;5854;48.072;16.286;2023-04-25T09:38:32;12.90;44.50
11597;DHT22;5854;48.072;16.286;2023-04-25T09:41:01;13.10;43.80
11597;DHT22;5854;48.072;16.286;2023-04-25T09:43:28;13.20;44.40
11597;DHT22;5854;48.072;16.286;2023-04-25T09:45:55;13.30;45.20
11597;DHT22;5854;48.072;16.286;2023-04-25T09:48:26;13.50;45.60
11597;DHT22;5854;48.072;16.286;2023-04-25T09:51:05;13.60;47.80
11597;DHT22;5854;48.072;16.286;2023-04-25T09:53:34;13.80;46.80
11597;DHT22;5854;48.072;16.286;2023-04-25T09:56:04;14.00;44.70
11597;DHT22;5854;48.072;16.286;2023-04-25T09:58:33;14.00;45.30
11597;DHT22;5854;48.072;16.286;2023-04-25T10:01:02;13.90;45.50
11597;DHT22;5854;48.072;16.286;2023-04-25T10:03:34;13.80;46.20
11597;DHT22;5854;48.072;16.286;2023-04-25T10:06:04;14.10;48.10
11597;DHT22;5854;48.072;16.286;2023-04-25T10:08:36;14.30;46.10
11597;DHT22;5854;48.072;16.286;2023-04-25T10:11:07;14.40;47.00
11597;DHT22;5854;48.072;16.286;2023-04-25T10:13:36;14.30;45.30
11597;DHT22;5854;48.072;16.286;2023-04-25T10:16:04;14.10;47.60
11597;DHT22;5854;48.072;16.286;2023-04-25T10:18:33;13.90;46.50
11597;DHT22;5854;48.072;16.286;2023-04-25T10:21:02;13.70;48.00
11597;DHT22;5854;48.072;16.286;2023-04-25T10:23:32;13.40;50.10
11597;DHT22;5854;48.072;16.286;2023-04-25T10:26:00;12.90;51.00
11597;DHT22;5854;48.072;16.286;2023-04-25T10:28:27;12.70;52.60
11597;DHT22;5854;48.072;16.286;2023-04-25T10:30:58;12.60;53.90
11597;DHT22;5854;48.072;16.286;2023-04-25T10:33:39;12.70;53.10
11597;DHT22;5854;48.072;16.286;2023-04-25T10:36:08;12.70;53.50
11597;DHT22;5854;48.072;16.286;2023-04-25T10:38:36;12.70;53.60
11597;DHT22;5854;48.072;16.286;2023-04-25T10:41:05;12.90;53.30
11597;DHT22;5854;48.072;16.286;2023-04-25T10:43:35;13.10;52.60
11597;DHT22;5854;48.072;16.286;2023-04-25T10:46:13;13.00;52.70
11597;DHT22;5854;48.072;16.286;2023-04-25T10:48:51;13.10;52.10
11597;DHT22;5854;48.072;16.286;2023-04-25T10:51:21;13.30;51.10
11597;DHT22;5854;48.072;16.286;2023-04-25T10:54:00;13.20;51.00
11597;DHT22;5854;48.072;16.286;2023-04-25T10:56:29;13.50;53.00
11597;DHT22;5854;48.072;16.286;2023-04-25T10:59:05;13.70;51.60
11597;DHT22;5854;48.072;16.286;2023-04-25T11:01:39;13.80;50.00
11597;DHT22;5854;48.072;16.286;2023-04-25T11:04:21;13.70;47.60
11597;DHT22;5854;48.072;16.286;2023-04-25T11:06:59;13.80;50.50
11597;DHT22;5854;48.072;16.286;2023-04-25T11:09:30;14.00;49.10
11597;DHT22;5854;48.072;16.286;2023-04-25T11:11:58;14.20;50.60
11597;DHT22;5854;48.072;16.286;2023-04-25T11:14:26;14.30;49.80
11597;DHT22;5854;48.072;16.286;2023-04-25T11:16:53;14.30;46.20
11597;DHT22;5854;48.072;16.286;2023-04-25T11:19:22;14.30;47.80
11597;DHT22;5854;48.072;16.286;2023-04-25T11:21:50;14.40;47.60
11597;DHT22;5854;48.072;16.286;2023-04-25T11:24:18;14.30;48.10
11597;DHT22;5854;48.072;16.286;2023-04-25T11:26:47;14.40;48.40
11597;DHT22;5854;48.072;16.286;2023-04-25T11:29:14;14.40;47.30
11597;DHT22;5854;48.072;16.286;2023-04-25T11:31:43;14.40;46.40
11597;DHT22;5854;48.072;16.286;2023-04-25T11:34:10;14.30;48.40
11597;DHT22;5854;48.072;16.286;2023-04-25T11:36:39;14.20;48.90
11597;DHT22;5854;48.072;16.286;2023-04-25T11:39:06;13.90;49.90
11597;DHT22;5854;48.072;16.286;2023-04-25T11:41:34;13.30;52.60
11597;DHT22;5854;48.072;16.286;2023-04-25T11:44:01;12.90;57.10
11597;DHT22;5854;48.072;16.286;2023-04-25T11:46:29;12.50;60.50
11597;DHT22;5854;48.072;16.286;2023-04-25T11:48:57;12.40;61.70
11597;DHT22;5854;48.072;16.286;2023-04-25T11:51:24;12.40;63.80
11597;DHT22;5854;48.072;16.286;2023-04-25T11:53:53;12.70;61.80
11597;DHT22;5854;48.072;16.286;2023-04-25T11:56:20;12.60;59.40
11597;DHT22;5854;48.072;16.286;2023-04-25T11:58:54;12.80;59.70
11597;DHT22;5854;48.072;16.286;2023-04-25T12:01:30;13.10;61.80
11597;DHT22;5854;48.072;16.286;2023-04-25T12:03:57;13.30;59.60
11597;DHT22;5854;48.072;16.286;2023-04-25T12:06:28;13.50;57.30
11597;DHT22;5854;48.072;16.286;2023-04-25T12:09:01;13.80;56.80
11597;DHT22;5854;48.072;16.286;2023-04-25T12:11:30;13.90;56.70
11597;DHT22;5854;48.072;16.286;2023-04-25T12:14:02;14.10;51.40
11597;DHT22;5854;48.072;16.286;2023-04-25T12:16:40;14.10;48.10
11597;DHT22;5854;48.072;16.286;2023-04-25T12:19:08;14.10;49.90
11597;DHT22;5854;48.072;16.286;2023-04-25T12:21:35;14.20;52.10
11597;DHT22;5854;48.072;16.286;2023-04-25T12:24:15;14.20;48.80
11597;DHT22;5854;48.072;16.286;2023-04-25T12:26:51;14.20;52.00
11597;DHT22;5854;48.072;16.286;2023-04-25T12:29:21;14.20;52.40
11597;DHT22;5854;48.072;16.286;2023-04-25T12:31:50;14.20;50.20
11597;DHT22;5854;48.072;16.286;2023-04-25T12:34:18;14.20;49.20
11597;DHT22;5854;48.072;16.286;2023-04-25T12:36:45;14.40;50.60
11597;DHT22;5854;48.072;16.286;2023-04-25T12:39:18;14.40;49.80
11597;DHT22;5854;48.072;16.286;2023-04-25T12:41:47;14.60;50.50
11597;DHT22;5854;48.072;16.286;2023-04-25T12:44:14;14.50;50.20
11597;DHT22;5854;48.072;16.286;2023-04-25T12:46:48;14.40;50.40
11597;DHT22;5854;48.072;16.286;2023-04-25T12:49:16;14.40;51.60
11597;DHT22;5854;48.072;16.286;2023-04-25T12:51:43;14.40;51.50
11597;DHT22;5854;48.072;16.286;2023-04-25T12:54:10;14.30;47.30
11597;DHT22;5854;48.072;16.286;2023-04-25T12:56:41;14.20;49.30
11597;DHT22;5854;48.072;16.286;2023-04-25T12:59:08;14.40;45.30
11597;DHT22;5854;48.072;16.286;2023-04-25T13:01:36;14.50;49.30
11597;DHT22;5854;48.072;16.286;2023-04-25T13:04:03;14.60;50.00
11597;DHT22;5854;48.072;16.286;2023-04-25T13:06:31;14.70;48.50
11597;DHT22;5854;48.072;16.286;2023-04-25T13:08:58;15.00;48.70
11597;DHT22;5854;48.072;16.286;2023-04-25T13:11:25;14.90;44.30
11597;DHT22;5854;48.072;16.286;2023-04-25T13:13:55;14.80;46.90
11597;DHT22;5854;48.072;16.286;2023-04-25T13:16:22;14.80;43.80
11597;DHT22;5854;48.072;16.286;2023-04-25T13:18:49;15.60;46.20
11597;DHT22;5854;48.072;16.286;2023-04-25T13:21:16;17.00;38.80
11597;DHT22;5854;48.072;16.286;2023-04-25T13:23:43;17.50;39.60
11597;DHT22;5854;48.072;16.286;2023-04-25T13:26:12;18.00;37.80
11597;DHT22;5854;48.072;16.286;2023-04-25T13:28:39;18.10;39.10
11597;DHT22;5854;48.072;16.286;2023-04-25T13:31:08;18.20;38.30
11597;DHT22;5854;48.072;16.286;2023-04-25T13:33:35;18.30;38.10
11597;DHT22;5854;48.072;16.286;2023-04-25T13:36:02;18.20;39.40
11597;DHT22;5854;48.072;16.286;2023-04-25T13:38:32;18.70;36.40
11597;DHT22;5854;48.072;16.286;2023-04-25T13:40:59;18.00;38.00
11597;DHT22;5854;48.072;16.286;2023-04-25T13:43:26;17.90;38.20
11597;DHT22;5854;48.072;16.286;2023-04-25T13:45:54;17.80;40.00
11597;DHT22;5854;48.072;16.286;2023-04-25T13:48:26;17.60;38.50
11597;DHT22;5854;48.072;16.286;2023-04-25T13:51:02;17.30;38.40
11597;DHT22;5854;48.072;16.286;2023-04-25T13:53:34;17.10;43.00
11597;DHT22;5854;48.072;16.286;2023-04-25T13:56:02;16.60;43.80
11597;DHT22;5854;48.072;16.286;2023-04-25T13:58:31;15.90;42.50
11597;DHT22;5854;48.072;16.286;2023-04-25T14:00:58;15.40;44.50
11597;DHT22;5854;48.072;16.286;2023-04-25T14:03:27;15.10;43.10
11597;DHT22;5854;48.072;16.286;2023-04-25T14:05:54;14.90;47.40
11597;DHT22;5854;48.072;16.286;2023-04-25T14:08:21;14.90;47.50
11597;DHT22;5854;48.072;16.286;2023-04-25T14:10:49;14.90;49.10
11597;DHT22;5854;48.072;16.286;2023-04-25T14:13:16;14.90;47.60
11597;DHT22;5854;48.072;16.286;2023-04-25T14:15:43;15.00;47.80
11597;DHT22;5854;48.072;16.286;2023-04-25T14:18:10;14.90;46.00
11597;DHT22;5854;48.072;16.286;2023-04-25T14:20:39;15.00;47.90
11597;DHT22;5854;48.072;16.286;2023-04-25T14:23:06;14.90;43.20
11597;DHT22;5854;48.072;16.286;2023-04-25T14:25:34;14.90;48.30
11597;DHT22;5854;48.072;16.286;2023-04-25T14:28:02;14.80;47.60
11597;DHT22;5854;48.072;16.286;2023-04-25T14:30:29;14.80;44.40
11597;DHT22;5854;48.072;16.286;2023-04-25T14:32:56;14.90;48.20
11597;DHT22;5854;48.072;16.286;2023-04-25T14:35:23;14.90;43.90
11597;DHT22;5854;48.072;16.286;2023-04-25T14:37:54;15.00;44.50
11597;DHT22;5854;48.072;16.286;2023-04-25T14:40:21;14.90;43.10
11597;DHT22;5854;48.072;16.286;2023-04-25T14:42:48;14.80;42.40
11597;DHT22;5854;48.072;16.286;2023-04-25T14:45:15;14.90;44.10
11597;DHT22;5854;48.072;16.286;2023-04-25T14:47:43;15.10;43.40
11597;DHT22;5854;48.072;16.286;2023-04-25T14:50:10;15.00;42.50
11597;DHT22;5854;48.072;16.286;2023-04-25T14:52:37;15.00;43.70
11597;DHT22;5854;48.072;16.286;2023-04-25T14:55:06;15.10;42.00
11597;DHT22;5854;48.072;16.286;2023-04-25T14:57:34;15.00;43.00
11597;DHT22;5854;48.072;16.286;2023-04-25T15:00:03;15.20;41.60
11597;DHT22;5854;48.072;16.286;2023-04-25T15:02:34;15.30;43.70
11597;DHT22;5854;48.072;16.286;2023-04-25T15:05:01;15.30;44.70
11597;DHT22;5854;48.072;16.286;2023-04-25T15:07:28;15.20;43.00
11597;DHT22;5854;48.072;16.286;2023-04-25T15:09:56;15.30;43.80
11597;DHT22;5854;48.072;16.286;2023-04-25T15:12:24;15.30;42.60
11597;DHT22;5854;48.072;16.286;2023-04-25T15:14:53;15.20;45.20
11597;DHT22;5854;48.072;16.286;2023-04-25T15:17:21;15.30;43.90
11597;DHT22;5854;48.072;16.286;2023-04-25T15:19:48;15.40;42.90
11597;DHT22;5854;48.072;16.286;2023-04-25T15:22:15;15.30;39.80
11597;DHT22;5854;48.072;16.286;2023-04-25T15:24:42;15.30;42.80
11597;DHT22;5854;48.072;16.286;2023-04-25T15:27:09;15.10;42.00
11597;DHT22;5854;48.072;16.286;2023-04-25T15:29:38;15.10;44.80
11597;DHT22;5854;48.072;16.286;2023-04-25T15:32:05;15.00;45.60
11597;DHT22;5854;48.072;16.286;2023-04-25T15:34:33;15.00;43.60
11597;DHT22;5854;48.072;16.286;2023-04-25T15:37:00;14.60;45.00
11597;DHT22;5854;48.072;16.286;2023-04-25T15:39:27;14.80;45.70